sensor_id;sensor_type;location;lat;lon;timestamp;pressure;altitude;pressure_sealevel;temperature;humidity
10127;BME280;13080;42.608;23.362;2022-07-12T00:00:46;93194.84;;;9.30;76.97
10127;BME280;13080;42.608;23.362;2022-07-12T00:03:13;93192.63;;;9.23;77.52
10127;BME280;13080;42.608;23.362;2022-07-12T00:05:40;93200.78;;;9.18;77.84
10127;BME280;13080;42.608;23.362;2022-07-12T00:08:08;93202.34;;;9.10;78.60
10127;BME280;13080;42.608;23.362;2022-07-12T00:10:35;93196.84;;;9.07;78.82
10127;BME280;13080;42.608;23.362;2022-07-12T00:13:02;93197.34;;;9.09;78.77
10127;BME280;13080;42.608;23.362;2022-07-12T00:15:29;93203.44;;;9.09;78.50
10127;BME280;13080;42.608;23.362;2022-07-12T00:17:56;93204.53;;;9.08;78.20
10127;BME280;13080;42.608;23.362;2022-07-12T00:20:23;93196.56;;;9.17;78.18
10127;BME280;13080;42.608;23.362;2022-07-12T00:22:49;93188.72;;;9.21;78.79
10127;BME280;13080;42.608;23.362;2022-07-12T00:25:18;93190.00;;;9.32;78.15
10127;BME280;13080;42.608;23.362;2022-07-12T00:27:44;93186.38;;;9.36;78.45
10127;BME280;13080;42.608;23.362;2022-07-12T00:30:11;93188.56;;;9.34;77.52
10127;BME280;13080;42.608;23.362;2022-07-12T00:32:38;93189.69;;;9.42;76.89
10127;BME280;13080;42.608;23.362;2022-07-12T00:35:06;93187.34;;;9.58;76.14
10127;BME280;13080;42.608;23.362;2022-07-12T00:37:33;93187.66;;;9.56;74.26
10127;BME280;13080;42.608;23.362;2022-07-12T00:39:59;93186.22;;;9.50;75.17
10127;BME280;13080;42.608;23.362;2022-07-12T00:42:27;93182.00;;;9.58;74.43
10127;BME280;13080;42.608;23.362;2022-07-12T00:44:55;93187.34;;;9.58;75.20
10127;BME280;13080;42.608;23.362;2022-07-12T00:47:32;93177.75;;;9.83;72.70
10127;BME280;13080;42.608;23.362;2022-07-12T00:50:03;93180.88;;;9.85;73.52
10127;BME280;13080;42.608;23.362;2022-07-12T00:52:30;93187.13;;;9.98;73.08
10127;BME280;13080;42.608;23.362;2022-07-12T00:54:57;93188.41;;;9.92;73.08
10127;BME280;13080;42.608;23.362;2022-07-12T00:57:24;93184.31;;;9.86;72.90
10127;BME280;13080;42.608;23.362;2022-07-12T00:59:52;93185.44;;;9.85;73.71
10127;BME280;13080;42.608;23.362;2022-07-12T01:02:19;93182.91;;;9.79;74.25
10127;BME280;13080;42.608;23.362;2022-07-12T01:04:46;93183.72;;;9.71;73.94
10127;BME280;13080;42.608;23.362;2022-07-12T01:07:13;93180.72;;;9.82;73.96
10127;BME280;13080;42.608;23.362;2022-07-12T01:09:41;93179.66;;;9.65;74.81
10127;BME280;13080;42.608;23.362;2022-07-12T01:12:08;93174.47;;;9.69;74.86
10127;BME280;13080;42.608;23.362;2022-07-12T01:14:35;93174.78;;;9.67;74.55
10127;BME280;13080;42.608;23.362;2022-07-12T01:17:04;93175.88;;;9.66;75.77
10127;BME280;13080;42.608;23.362;2022-07-12T01:19:31;93178.72;;;9.61;75.09
10127;BME280;13080;42.608;23.362;2022-07-12T01:22:01;93177.63;;;9.62;75.51
10127;BME280;13080;42.608;23.362;2022-07-12T01:24:30;93175.09;;;9.74;75.88
10127;BME280;13080;42.608;23.362;2022-07-12T01:26:57;93182.78;;;9.67;76.07
10127;BME280;13080;42.608;23.362;2022-07-12T01:29:24;93181.72;;;9.60;76.65
10127;BME280;13080;42.608;23.362;2022-07-12T01:31:52;93180.44;;;9.57;76.70
10127;BME280;13080;42.608;23.362;2022-07-12T01:34:20;93165.06;;;9.63;76.29
10127;BME280;13080;42.608;23.362;2022-07-12T01:36:47;93171.19;;;9.72;75.52
10127;BME280;13080;42.608;23.362;2022-07-12T01:39:14;93169.94;;;9.78;74.00
10127;BME280;13080;42.608;23.362;2022-07-12T01:41:43;93175.56;;;9.59;75.20
10127;BME280;13080;42.608;23.362;2022-07-12T01:44:10;93179.19;;;9.63;73.96
10127;BME280;13080;42.608;23.362;2022-07-12T01:46:37;93176.69;;;9.67;74.28
10127;BME280;13080;42.608;23.362;2022-07-12T01:49:04;93175.91;;;9.57;75.21
10127;BME280;13080;42.608;23.362;2022-07-12T01:51:31;93174.19;;;9.44;76.01
10127;BME280;13080;42.608;23.362;2022-07-12T01:53:58;93172.47;;;9.40;76.13
10127;BME280;13080;42.608;23.362;2022-07-12T01:56:25;93171.66;;;9.30;77.17
10127;BME280;13080;42.608;23.362;2022-07-12T01:58:53;93171.50;;;9.35;78.22
10127;BME280;13080;42.608;23.362;2022-07-12T02:01:20;93168.38;;;9.25;78.56
10127;BME280;13080;42.608;23.362;2022-07-12T02:03:47;93171.97;;;9.20;79.40
10127;BME280;13080;42.608;23.362;2022-07-12T02:06:14;93172.13;;;9.15;80.35
10127;BME280;13080;42.608;23.362;2022-07-12T02:08:41;93171.66;;;9.13;80.29
10127;BME280;13080;42.608;23.362;2022-07-12T02:11:08;93164.91;;;9.07;80.17
10127;BME280;13080;42.608;23.362;2022-07-12T02:13:35;93164.28;;;9.19;80.94
10127;BME280;13080;42.608;23.362;2022-07-12T02:16:03;93174.31;;;9.13;82.95
10127;BME280;13080;42.608;23.362;2022-07-12T02:18:32;93180.22;;;9.01;82.01
10127;BME280;13080;42.608;23.362;2022-07-12T02:20:59;93172.09;;;8.98;81.92
10127;BME280;13080;42.608;23.362;2022-07-12T02:23:27;93174.44;;;8.90;81.96
10127;BME280;13080;42.608;23.362;2022-07-12T02:25:54;93173.19;;;8.88;81.81
10127;BME280;13080;42.608;23.362;2022-07-12T02:28:20;93161.25;;;8.85;80.02
10127;BME280;13080;42.608;23.362;2022-07-12T02:30:47;93169.75;;;8.96;80.43
10127;BME280;13080;42.608;23.362;2022-07-12T02:33:15;93174.44;;;8.90;80.96
10127;BME280;13080;42.608;23.362;2022-07-12T02:35:42;93175.03;;;8.87;81.80
10127;BME280;13080;42.608;23.362;2022-07-12T02:38:09;93175.19;;;8.82;82.75
10127;BME280;13080;42.608;23.362;2022-07-12T02:40:37;93169.06;;;8.73;83.23
10127;BME280;13080;42.608;23.362;2022-07-12T02:43:22;93172.38;;;8.70;83.74
10127;BME280;13080;42.608;23.362;2022-07-12T02:45:50;93174.84;;;8.66;83.40
10127;BME280;13080;42.608;23.362;2022-07-12T02:48:19;93172.00;;;8.63;83.13
10127;BME280;13080;42.608;23.362;2022-07-12T02:50:46;93172.34;;;8.61;83.19
10127;BME280;13080;42.608;23.362;2022-07-12T02:53:12;93171.41;;;8.66;83.35
10127;BME280;13080;42.608;23.362;2022-07-12T02:55:39;93179.69;;;8.64;83.19
10127;BME280;13080;42.608;23.362;2022-07-12T02:58:06;93176.25;;;8.64;83.24
10127;BME280;13080;42.608;23.362;2022-07-12T03:00:33;93169.06;;;8.64;83.06
10127;BME280;13080;42.608;23.362;2022-07-12T03:03:00;93180.03;;;8.71;83.36
10127;BME280;13080;42.608;23.362;2022-07-12T03:05:29;93186.47;;;8.79;83.39
10127;BME280;13080;42.608;23.362;2022-07-12T03:07:56;93186.16;;;8.89;83.27
10127;BME280;13080;42.608;23.362;2022-07-12T03:10:22;93190.75;;;8.98;81.67
10127;BME280;13080;42.608;23.362;2022-07-12T03:12:49;93192.16;;;9.04;82.03
10127;BME280;13080;42.608;23.362;2022-07-12T03:15:16;93194.06;;;9.21;79.94
10127;BME280;13080;42.608;23.362;2022-07-12T03:17:43;93192.34;;;9.33;79.45
10127;BME280;13080;42.608;23.362;2022-07-12T03:20:10;93195.97;;;9.46;79.54
10127;BME280;13080;42.608;23.362;2022-07-12T03:22:41;93196.75;;;9.64;78.47
10127;BME280;13080;42.608;23.362;2022-07-12T03:25:09;93202.84;;;9.82;78.75
10127;BME280;13080;42.608;23.362;2022-07-12T03:27:35;93205.94;;;10.02;77.68
10127;BME280;13080;42.608;23.362;2022-07-12T03:30:03;93192.28;;;10.12;77.88
10127;BME280;13080;42.608;23.362;2022-07-12T03:32:30;93200.09;;;10.26;76.76
10127;BME280;13080;42.608;23.362;2022-07-12T03:34:57;93206.19;;;10.44;76.61
10127;BME280;13080;42.608;23.362;2022-07-12T03:37:24;93207.25;;;10.51;79.30
10127;BME280;13080;42.608;23.362;2022-07-12T03:39:52;93198.47;;;10.51;78.90
10127;BME280;13080;42.608;23.362;2022-07-12T03:42:19;93209.13;;;10.51;80.43
10127;BME280;13080;42.608;23.362;2022-07-12T03:44:46;93207.13;;;10.48;79.98
10127;BME280;13080;42.608;23.362;2022-07-12T03:47:13;93207.88;;;10.48;79.87
10127;BME280;13080;42.608;23.362;2022-07-12T03:49:40;93209.50;;;10.40;80.12
10127;BME280;13080;42.608;23.362;2022-07-12T03:52:07;93207.44;;;10.37;81.79
10127;BME280;13080;42.608;23.362;2022-07-12T03:54:34;93208.22;;;10.38;81.31
10127;BME280;13080;42.608;23.362;2022-07-12T03:57:02;93214.66;;;10.46;81.01
10127;BME280;13080;42.608;23.362;2022-07-12T03:59:41;93210.34;;;10.62;81.32
10127;BME280;13080;42.608;23.362;2022-07-12T04:02:08;93209.03;;;10.77;78.34
10127;BME280;13080;42.608;23.362;2022-07-12T04:04:35;93211.63;;;10.94;77.02
10127;BME280;13080;42.608;23.362;2022-07-12T04:07:02;93213.00;;;11.00;78.90
10127;BME280;13080;42.608;23.362;2022-07-12T04:09:29;93213.66;;;10.97;77.26
10127;BME280;13080;42.608;23.362;2022-07-12T04:11:56;93219.53;;;11.12;76.89
10127;BME280;13080;42.608;23.362;2022-07-12T04:14:24;93215.88;;;11.16;74.90
10127;BME280;13080;42.608;23.362;2022-07-12T04:16:52;93225.03;;;11.36;75.38
10127;BME280;13080;42.608;23.362;2022-07-12T04:19:18;93230.84;;;11.38;75.37
10127;BME280;13080;42.608;23.362;2022-07-12T04:21:47;93233.13;;;11.70;73.59
10127;BME280;13080;42.608;23.362;2022-07-12T04:24:14;93236.47;;;11.67;74.68
10127;BME280;13080;42.608;23.362;2022-07-12T04:26:40;93230.09;;;11.80;73.17
10127;BME280;13080;42.608;23.362;2022-07-12T04:29:07;93233.53;;;12.01;71.35
10127;BME280;13080;42.608;23.362;2022-07-12T04:31:35;93233.00;;;12.08;73.49
10127;BME280;13080;42.608;23.362;2022-07-12T04:34:02;93239.84;;;12.18;72.20
10127;BME280;13080;42.608;23.362;2022-07-12T04:36:29;93231.31;;;12.24;70.62
10127;BME280;13080;42.608;23.362;2022-07-12T04:38:56;93230.94;;;12.26;69.97
10127;BME280;13080;42.608;23.362;2022-07-12T04:41:23;93235.44;;;12.34;72.28
10127;BME280;13080;42.608;23.362;2022-07-12T04:43:50;93241.25;;;12.36;74.70
10127;BME280;13080;42.608;23.362;2022-07-12T04:46:17;93232.34;;;12.44;75.78
10127;BME280;13080;42.608;23.362;2022-07-12T04:48:45;93235.63;;;12.62;74.38
10127;BME280;13080;42.608;23.362;2022-07-12T04:51:11;93237.88;;;12.73;73.58
10127;BME280;13080;42.608;23.362;2022-07-12T04:53:40;93241.13;;;12.78;73.99
10127;BME280;13080;42.608;23.362;2022-07-12T04:56:07;93241.56;;;12.80;73.36
10127;BME280;13080;42.608;23.362;2022-07-12T04:58:33;93239.09;;;12.75;73.49
10127;BME280;13080;42.608;23.362;2022-07-12T05:01:00;93244.78;;;12.74;71.47
10127;BME280;13080;42.608;23.362;2022-07-12T05:03:27;93245.88;;;12.60;71.28
10127;BME280;13080;42.608;23.362;2022-07-12T05:05:57;93247.56;;;12.65;73.60
10127;BME280;13080;42.608;23.362;2022-07-12T05:08:24;93250.16;;;12.86;73.23
10127;BME280;13080;42.608;23.362;2022-07-12T05:10:51;93244.03;;;12.85;71.69
10127;BME280;13080;42.608;23.362;2022-07-12T05:13:18;93249.25;;;12.82;71.03
10127;BME280;13080;42.608;23.362;2022-07-12T05:15:44;93248.81;;;13.04;71.27
10127;BME280;13080;42.608;23.362;2022-07-12T05:18:11;93250.50;;;13.09;68.46
10127;BME280;13080;42.608;23.362;2022-07-12T05:20:38;93244.50;;;13.12;68.98
10127;BME280;13080;42.608;23.362;2022-07-12T05:23:06;93243.03;;;13.15;69.04
10127;BME280;13080;42.608;23.362;2022-07-12T05:25:33;93249.84;;;13.12;68.52
10127;BME280;13080;42.608;23.362;2022-07-12T05:28:00;93248.38;;;13.27;68.82
10127;BME280;13080;42.608;23.362;2022-07-12T05:30:26;93255.31;;;13.40;66.46
10127;BME280;13080;42.608;23.362;2022-07-12T05:32:53;93251.75;;;13.48;67.50
10127;BME280;13080;42.608;23.362;2022-07-12T05:35:20;93258.66;;;13.49;66.15
10127;BME280;13080;42.608;23.362;2022-07-12T05:37:47;93253.50;;;13.69;66.17
10127;BME280;13080;42.608;23.362;2022-07-12T05:40:15;93252.13;;;13.87;66.88
10127;BME280;13080;42.608;23.362;2022-07-12T05:42:42;93258.69;;;14.02;67.40
10127;BME280;13080;42.608;23.362;2022-07-12T05:45:09;93262.56;;;14.17;67.70
10127;BME280;13080;42.608;23.362;2022-07-12T05:47:36;93260.84;;;14.25;65.41
10127;BME280;13080;42.608;23.362;2022-07-12T05:50:04;93257.81;;;14.26;65.45
10127;BME280;13080;42.608;23.362;2022-07-12T05:52:31;93260.38;;;14.23;64.61
10127;BME280;13080;42.608;23.362;2022-07-12T05:55:17;93261.78;;;14.32;64.01
10127;BME280;13080;42.608;23.362;2022-07-12T05:57:44;93257.69;;;14.51;64.23
10127;BME280;13080;42.608;23.362;2022-07-12T06:00:11;93261.94;;;14.52;64.69
10127;BME280;13080;42.608;23.362;2022-07-12T06:02:38;93261.84;;;14.76;66.15
10127;BME280;13080;42.608;23.362;2022-07-12T06:05:06;93261.22;;;14.83;63.24
10127;BME280;13080;42.608;23.362;2022-07-12T06:07:33;93256.28;;;14.69;62.94
10127;BME280;13080;42.608;23.362;2022-07-12T06:10:00;93258.38;;;14.76;64.25
10127;BME280;13080;42.608;23.362;2022-07-12T06:12:28;93260.38;;;14.95;62.54
10127;BME280;13080;42.608;23.362;2022-07-12T06:17:40;93257.34;;;14.81;61.51
10127;BME280;13080;42.608;23.362;2022-07-12T06:20:07;93251.63;;;14.98;61.47
10127;BME280;13080;42.608;23.362;2022-07-12T06:22:34;93247.72;;;15.27;63.03
10127;BME280;13080;42.608;23.362;2022-07-12T06:25:01;93252.47;;;15.34;62.38
10127;BME280;13080;42.608;23.362;2022-07-12T06:27:29;93249.06;;;15.53;62.39
10127;BME280;13080;42.608;23.362;2022-07-12T06:29:56;93253.09;;;15.63;61.13
10127;BME280;13080;42.608;23.362;2022-07-12T06:32:23;93252.94;;;15.71;60.19
10127;BME280;13080;42.608;23.362;2022-07-12T06:34:49;93253.69;;;15.88;61.70
10127;BME280;13080;42.608;23.362;2022-07-12T06:37:16;93258.81;;;16.12;59.84
10127;BME280;13080;42.608;23.362;2022-07-12T06:39:43;93256.31;;;16.23;61.32
10127;BME280;13080;42.608;23.362;2022-07-12T06:42:12;93255.13;;;16.20;58.88
10127;BME280;13080;42.608;23.362;2022-07-12T06:44:40;93255.31;;;16.12;58.80
10127;BME280;13080;42.608;23.362;2022-07-12T06:47:07;93255.13;;;16.01;58.35
10127;BME280;13080;42.608;23.362;2022-07-12T06:49:34;93247.25;;;16.12;55.82
10127;BME280;13080;42.608;23.362;2022-07-12T06:52:00;93246.25;;;16.00;53.72
10127;BME280;13080;42.608;23.362;2022-07-12T06:54:27;93252.63;;;16.12;56.59
10127;BME280;13080;42.608;23.362;2022-07-12T06:56:54;93249.47;;;16.06;53.20
10127;BME280;13080;42.608;23.362;2022-07-12T06:59:20;93245.41;;;16.16;54.82
10127;BME280;13080;42.608;23.362;2022-07-12T07:01:48;93241.09;;;16.31;52.49
10127;BME280;13080;42.608;23.362;2022-07-12T07:04:17;93252.34;;;16.36;53.64
10127;BME280;13080;42.608;23.362;2022-07-12T07:06:44;93241.31;;;16.41;55.03
10127;BME280;13080;42.608;23.362;2022-07-12T07:09:11;93247.91;;;16.44;52.24
10127;BME280;13080;42.608;23.362;2022-07-12T07:11:37;93251.28;;;16.41;53.69
10127;BME280;13080;42.608;23.362;2022-07-12T07:14:04;93250.78;;;16.55;51.15
10127;BME280;13080;42.608;23.362;2022-07-12T07:16:31;93247.72;;;16.56;55.66
10127;BME280;13080;42.608;23.362;2022-07-12T07:18:59;93253.97;;;16.60;51.93
10127;BME280;13080;42.608;23.362;2022-07-12T07:21:26;93254.19;;;16.52;50.85
10127;BME280;13080;42.608;23.362;2022-07-12T07:23:53;93246.97;;;16.79;52.14
10127;BME280;13080;42.608;23.362;2022-07-12T07:26:20;93250.97;;;17.08;53.04
10127;BME280;13080;42.608;23.362;2022-07-12T07:28:47;93250.72;;;17.40;53.60
10127;BME280;13080;42.608;23.362;2022-07-12T07:31:33;93247.13;;;17.32;50.10
10127;BME280;13080;42.608;23.362;2022-07-12T07:36:47;93241.22;;;17.50;50.13
10127;BME280;13080;42.608;23.362;2022-07-12T07:39:14;93247.50;;;17.57;50.44
10127;BME280;13080;42.608;23.362;2022-07-12T07:41:41;93244.75;;;17.27;48.12
10127;BME280;13080;42.608;23.362;2022-07-12T07:44:07;93243.03;;;17.15;46.79
10127;BME280;13080;42.608;23.362;2022-07-12T07:46:34;93238.56;;;17.53;49.29
10127;BME280;13080;42.608;23.362;2022-07-12T07:49:02;93244.06;;;17.34;47.75
10127;BME280;13080;42.608;23.362;2022-07-12T07:51:29;93254.47;;;17.35;48.40
10127;BME280;13080;42.608;23.362;2022-07-12T07:53:56;93242.72;;;17.47;47.09
10127;BME280;13080;42.608;23.362;2022-07-12T07:56:23;93248.16;;;17.77;44.77
10127;BME280;13080;42.608;23.362;2022-07-12T07:58:49;93245.63;;;18.48;47.15
10127;BME280;13080;42.608;23.362;2022-07-12T08:01:17;93238.97;;;18.08;46.24
10127;BME280;13080;42.608;23.362;2022-07-12T08:03:44;93238.56;;;17.53;46.89
10127;BME280;13080;42.608;23.362;2022-07-12T08:06:12;93243.72;;;17.12;49.48
10127;BME280;13080;42.608;23.362;2022-07-12T08:08:38;93247.81;;;16.79;49.30
10127;BME280;13080;42.608;23.362;2022-07-12T08:11:05;93242.09;;;17.08;49.21
10127;BME280;13080;42.608;23.362;2022-07-12T08:13:32;93238.59;;;17.30;44.05
10127;BME280;13080;42.608;23.362;2022-07-12T08:15:59;93232.56;;;17.63;44.95
10127;BME280;13080;42.608;23.362;2022-07-12T08:18:26;93230.19;;;17.35;46.14
10127;BME280;13080;42.608;23.362;2022-07-12T08:20:53;93236.94;;;18.02;47.01
10127;BME280;13080;42.608;23.362;2022-07-12T08:23:21;93232.44;;;18.10;42.70
10127;BME280;13080;42.608;23.362;2022-07-12T08:25:50;93224.94;;;18.63;47.05
10127;BME280;13080;42.608;23.362;2022-07-12T08:28:17;93228.25;;;18.83;45.61
10127;BME280;13080;42.608;23.362;2022-07-12T08:30:43;93223.22;;;18.85;42.24
10127;BME280;13080;42.608;23.362;2022-07-12T08:33:10;93222.03;;;18.45;44.20
10127;BME280;13080;42.608;23.362;2022-07-12T08:35:37;93227.94;;;18.21;45.60
10127;BME280;13080;42.608;23.362;2022-07-12T08:38:04;93226.81;;;17.92;46.97
10127;BME280;13080;42.608;23.362;2022-07-12T08:40:32;93225.78;;;18.03;49.14
10127;BME280;13080;42.608;23.362;2022-07-12T08:42:59;93223.03;;;18.30;46.10
10127;BME280;13080;42.608;23.362;2022-07-12T08:45:26;93228.06;;;19.06;46.06
10127;BME280;13080;42.608;23.362;2022-07-12T08:47:53;93221.28;;;18.82;44.07
10127;BME280;13080;42.608;23.362;2022-07-12T08:50:21;93212.97;;;19.02;43.43
10127;BME280;13080;42.608;23.362;2022-07-12T08:52:51;93215.25;;;19.00;43.88
10127;BME280;13080;42.608;23.362;2022-07-12T08:55:22;93211.66;;;18.51;48.08
10127;BME280;13080;42.608;23.362;2022-07-12T08:57:52;93213.94;;;18.45;43.33
10127;BME280;13080;42.608;23.362;2022-07-12T09:00:20;93217.81;;;18.85;41.12
10127;BME280;13080;42.608;23.362;2022-07-12T09:02:48;93221.50;;;19.04;40.34
10127;BME280;13080;42.608;23.362;2022-07-12T09:05:16;93215.53;;;18.87;40.97
10127;BME280;13080;42.608;23.362;2022-07-12T09:07:43;93213.97;;;18.86;39.57
10127;BME280;13080;42.608;23.362;2022-07-12T09:10:11;93210.97;;;18.58;40.04
10127;BME280;13080;42.608;23.362;2022-07-12T09:12:38;93208.97;;;18.88;43.24
10127;BME280;13080;42.608;23.362;2022-07-12T09:15:12;93210.81;;;19.25;44.22
10127;BME280;13080;42.608;23.362;2022-07-12T09:17:39;93210.34;;;19.68;40.05
10127;BME280;13080;42.608;23.362;2022-07-12T09:20:09;93207.66;;;20.55;41.60
10127;BME280;13080;42.608;23.362;2022-07-12T09:22:36;93210.41;;;20.59;41.07
10127;BME280;13080;42.608;23.362;2022-07-12T09:25:15;93204.28;;;20.94;39.53
10127;BME280;13080;42.608;23.362;2022-07-12T09:27:47;93196.16;;;21.55;38.26
10127;BME280;13080;42.608;23.362;2022-07-12T09:30:16;93199.53;;;22.06;37.82
10127;BME280;13080;42.608;23.362;2022-07-12T09:32:51;93200.06;;;21.44;36.30
10127;BME280;13080;42.608;23.362;2022-07-12T09:35:35;93197.63;;;20.60;38.15
10127;BME280;13080;42.608;23.362;2022-07-12T09:38:19;93198.84;;;21.16;42.42
10127;BME280;13080;42.608;23.362;2022-07-12T09:40:46;93204.31;;;21.45;39.09
10127;BME280;13080;42.608;23.362;2022-07-12T09:43:14;93203.53;;;21.41;36.56
10127;BME280;13080;42.608;23.362;2022-07-12T09:45:42;93209.66;;;20.59;37.17
10127;BME280;13080;42.608;23.362;2022-07-12T09:48:10;93205.44;;;19.81;40.64
10127;BME280;13080;42.608;23.362;2022-07-12T09:50:38;93201.44;;;19.67;39.51
10127;BME280;13080;42.608;23.362;2022-07-12T09:53:05;93191.28;;;20.16;38.05
10127;BME280;13080;42.608;23.362;2022-07-12T09:55:36;93211.03;;;20.24;38.11
10127;BME280;13080;42.608;23.362;2022-07-12T09:58:04;93197.19;;;20.43;40.48
10127;BME280;13080;42.608;23.362;2022-07-12T10:00:32;93206.88;;;20.55;36.12
10127;BME280;13080;42.608;23.362;2022-07-12T10:03:03;93201.53;;;19.78;38.72
10127;BME280;13080;42.608;23.362;2022-07-12T10:05:32;93198.19;;;19.40;42.01
10127;BME280;13080;42.608;23.362;2022-07-12T10:08:01;93200.25;;;19.58;38.25
10127;BME280;13080;42.608;23.362;2022-07-12T10:10:28;93196.31;;;19.51;36.85
10127;BME280;13080;42.608;23.362;2022-07-12T10:12:56;93197.13;;;19.56;40.82
10127;BME280;13080;42.608;23.362;2022-07-12T10:15:25;93199.06;;;19.55;40.97
10127;BME280;13080;42.608;23.362;2022-07-12T10:17:54;93185.06;;;19.46;38.43
10127;BME280;13080;42.608;23.362;2022-07-12T10:20:26;93184.41;;;19.63;40.84
10127;BME280;13080;42.608;23.362;2022-07-12T10:22:54;93191.78;;;19.66;40.18
10127;BME280;13080;42.608;23.362;2022-07-12T10:25:28;93184.78;;;19.62;39.28
10127;BME280;13080;42.608;23.362;2022-07-12T10:27:56;93187.31;;;19.96;40.46
10127;BME280;13080;42.608;23.362;2022-07-12T10:30:24;93185.84;;;20.12;40.97
10127;BME280;13080;42.608;23.362;2022-07-12T10:32:52;93186.91;;;19.90;38.63
10127;BME280;13080;42.608;23.362;2022-07-12T10:35:23;93178.00;;;19.89;39.21
10127;BME280;13080;42.608;23.362;2022-07-12T10:38:20;93176.28;;;19.63;35.60
10127;BME280;13080;42.608;23.362;2022-07-12T10:40:49;93175.88;;;19.02;38.95
10127;BME280;13080;42.608;23.362;2022-07-12T10:43:26;93169.09;;;19.26;38.72
10127;BME280;13080;42.608;23.362;2022-07-12T10:46:18;93173.16;;;19.58;43.38
10127;BME280;13080;42.608;23.362;2022-07-12T10:48:46;93175.66;;;19.84;39.49
10127;BME280;13080;42.608;23.362;2022-07-12T10:51:14;93177.22;;;19.89;39.23
10127;BME280;13080;42.608;23.362;2022-07-12T10:53:43;93173.72;;;19.85;37.25
10127;BME280;13080;42.608;23.362;2022-07-12T10:56:18;93174.84;;;19.77;39.50
10127;BME280;13080;42.608;23.362;2022-07-12T10:58:47;93173.94;;;19.58;37.14
10127;BME280;13080;42.608;23.362;2022-07-12T11:01:16;93171.38;;;19.83;37.68
10127;BME280;13080;42.608;23.362;2022-07-12T11:03:45;93188.03;;;19.85;40.10
10127;BME280;13080;42.608;23.362;2022-07-12T11:06:13;93179.56;;;19.98;36.95
10127;BME280;13080;42.608;23.362;2022-07-12T11:08:52;93181.50;;;19.93;39.65
10127;BME280;13080;42.608;23.362;2022-07-12T11:11:20;93186.50;;;19.84;37.29
10127;BME280;13080;42.608;23.362;2022-07-12T11:13:47;93177.91;;;19.75;38.17
10127;BME280;13080;42.608;23.362;2022-07-12T11:16:14;93172.50;;;19.75;36.08
10127;BME280;13080;42.608;23.362;2022-07-12T11:18:42;93185.63;;;19.69;36.06
10127;BME280;13080;42.608;23.362;2022-07-12T11:21:09;93190.03;;;19.96;37.72
10127;BME280;13080;42.608;23.362;2022-07-12T11:23:37;93188.59;;;20.23;40.50
10127;BME280;13080;42.608;23.362;2022-07-12T11:26:08;93191.72;;;20.32;35.63
10127;BME280;13080;42.608;23.362;2022-07-12T11:28:36;93189.81;;;20.44;37.98
10127;BME280;13080;42.608;23.362;2022-07-12T11:31:05;93179.78;;;20.55;39.84
10127;BME280;13080;42.608;23.362;2022-07-12T11:33:33;93173.91;;;20.42;36.69
10127;BME280;13080;42.608;23.362;2022-07-12T11:36:02;93170.81;;;20.29;39.48
10127;BME280;13080;42.608;23.362;2022-07-12T11:38:30;93178.97;;;20.44;39.77
10127;BME280;13080;42.608;23.362;2022-07-12T11:40:57;93181.25;;;20.27;37.26
10127;BME280;13080;42.608;23.362;2022-07-12T11:43:26;93167.63;;;20.09;39.24
10127;BME280;13080;42.608;23.362;2022-07-12T11:45:54;93171.94;;;20.21;37.96
10127;BME280;13080;42.608;23.362;2022-07-12T11:48:22;93160.66;;;20.08;37.35
10127;BME280;13080;42.608;23.362;2022-07-12T11:50:51;93170.88;;;19.63;38.74
10127;BME280;13080;42.608;23.362;2022-07-12T11:53:18;93166.47;;;19.41;37.08
10127;BME280;13080;42.608;23.362;2022-07-12T11:55:47;93162.06;;;19.77;38.86
10127;BME280;13080;42.608;23.362;2022-07-12T11:58:14;93148.41;;;19.56;39.58
10127;BME280;13080;42.608;23.362;2022-07-12T12:00:43;93156.66;;;19.77;39.38
10127;BME280;13080;42.608;23.362;2022-07-12T12:03:11;93147.00;;;19.83;37.98
10127;BME280;13080;42.608;23.362;2022-07-12T12:05:38;93155.72;;;20.46;43.96
10127;BME280;13080;42.608;23.362;2022-07-12T12:08:05;93144.22;;;21.10;38.44
10127;BME280;13080;42.608;23.362;2022-07-12T12:10:32;93143.41;;;20.85;39.83
10127;BME280;13080;42.608;23.362;2022-07-12T12:13:00;93153.47;;;20.66;39.53
10127;BME280;13080;42.608;23.362;2022-07-12T12:15:29;93152.59;;;20.23;41.07
10127;BME280;13080;42.608;23.362;2022-07-12T12:17:59;93165.28;;;20.04;41.46
10127;BME280;13080;42.608;23.362;2022-07-12T12:20:28;93166.94;;;20.27;43.58
10127;BME280;13080;42.608;23.362;2022-07-12T12:22:57;93170.00;;;20.29;40.63
10127;BME280;13080;42.608;23.362;2022-07-12T12:25:25;93154.56;;;20.44;41.94
10127;BME280;13080;42.608;23.362;2022-07-12T12:27:55;93162.56;;;20.04;42.03
10127;BME280;13080;42.608;23.362;2022-07-12T12:30:21;93155.56;;;19.92;41.80
10127;BME280;13080;42.608;23.362;2022-07-12T12:32:50;93149.75;;;19.87;42.89
10127;BME280;13080;42.608;23.362;2022-07-12T12:35:20;93159.84;;;20.01;44.19
10127;BME280;13080;42.608;23.362;2022-07-12T12:37:53;93151.38;;;20.02;43.35
10127;BME280;13080;42.608;23.362;2022-07-12T12:40:21;93159.44;;;19.95;43.98
10127;BME280;13080;42.608;23.362;2022-07-12T12:42:48;93155.59;;;20.00;44.26
10127;BME280;13080;42.608;23.362;2022-07-12T12:45:23;93158.41;;;20.35;41.98
10127;BME280;13080;42.608;23.362;2022-07-12T12:47:58;93156.47;;;20.32;40.31
10127;BME280;13080;42.608;23.362;2022-07-12T12:50:46;93159.25;;;20.54;40.06
10127;BME280;13080;42.608;23.362;2022-07-12T12:53:16;93163.38;;;20.05;40.80
10127;BME280;13080;42.608;23.362;2022-07-12T12:55:44;93154.81;;;19.96;43.45
10127;BME280;13080;42.608;23.362;2022-07-12T12:58:12;93153.06;;;19.66;42.19
10127;BME280;13080;42.608;23.362;2022-07-12T13:00:41;93151.59;;;19.72;42.35
10127;BME280;13080;42.608;23.362;2022-07-12T13:03:09;93154.41;;;19.90;39.94